createdAt,value
2019-04-01T00:01:53.781Z,12.17
2019-04-01T00:04:41.325Z,13.27
2019-04-01T00:07:28.365Z,12.13
2019-04-01T00:10:17.122Z,13.20
2019-04-01T00:13:05.049Z,12.57
2019-04-01T00:15:52.503Z,11.20
2019-04-01T00:18:40.150Z,12.63
2019-04-01T00:21:27.585Z,12.70
2019-04-01T00:24:15.043Z,12.17
2019-04-01T00:27:03.064Z,12.73
2019-04-01T00:29:50.207Z,13.13
2019-04-01T00:32:37.846Z,12.53
2019-04-01T00:35:25.059Z,12.57
2019-04-01T00:38:13.461Z,12.70
2019-04-01T00:41:01.228Z,13.00
2019-04-01T00:44:13.531Z,12.47
2019-04-01T00:47:01.978Z,12.40
2019-04-01T00:49:49.697Z,13.00
2019-04-01T00:52:37.331Z,12.07
2019-04-01T00:55:24.913Z,12.63
2019-04-01T00:58:12.634Z,12.57
2019-04-01T01:01:00.469Z,12.20
2019-04-01T01:03:47.989Z,12.63
2019-04-01T01:06:35.287Z,11.90
2019-04-01T01:09:22.755Z,11.43
2019-04-01T01:12:10.429Z,12.83
2019-04-01T01:14:57.849Z,11.87
2019-04-01T01:17:45.340Z,12.73
2019-04-01T01:20:32.554Z,12.47
2019-04-01T01:23:20.205Z,11.83
2019-04-01T01:26:07.925Z,12.53
2019-04-01T01:28:55.397Z,12.67
2019-04-01T01:31:43.961Z,12.10
2019-04-01T01:34:31.423Z,12.23
2019-04-01T01:37:19.746Z,11.40
2019-04-01T01:40:07.193Z,11.83
2019-04-01T01:42:54.755Z,12.27
2019-04-01T01:45:42.494Z,12.57
2019-04-01T01:48:30.449Z,13.87
2019-04-01T01:51:18.279Z,11.73
2019-04-01T01:54:05.979Z,11.37
2019-04-01T01:56:53.209Z,11.13
2019-04-01T01:59:40.659Z,10.67
2019-04-01T02:02:28.127Z,10.47
2019-04-01T02:05:15.418Z,11.67
2019-04-01T02:08:03.055Z,11.33
2019-04-01T02:10:51.002Z,11.53
2019-04-01T02:13:39.180Z,10.20
2019-04-01T02:16:27.015Z,11.93
2019-04-01T02:19:14.133Z,13.20
2019-04-01T02:22:01.522Z,12.60
2019-04-01T02:24:50.138Z,13.23
2019-04-01T02:27:37.743Z,12.00
2019-04-01T02:30:25.179Z,12.47
2019-04-01T02:33:12.766Z,12.43
2019-04-01T02:36:00.449Z,12.07
2019-04-01T02:38:48.103Z,12.73
2019-04-01T02:41:35.665Z,12.13
2019-04-01T02:44:23.026Z,12.80
2019-04-01T02:47:10.644Z,12.87
2019-04-01T02:49:58.148Z,13.00
2019-04-01T02:52:45.703Z,12.60
2019-04-01T02:55:33.576Z,11.10
2019-04-01T02:58:20.587Z,11.40
2019-04-01T03:01:08.234Z,10.83
2019-04-01T03:03:56.120Z,11.63
2019-04-01T03:06:43.898Z,12.00
2019-04-01T03:09:31.587Z,11.17
2019-04-01T03:12:19.015Z,10.80
2019-04-01T03:15:06.984Z,12.37
2019-04-01T03:17:54.394Z,12.07
2019-04-01T03:20:42.021Z,12.23
2019-04-01T03:23:30.067Z,11.37
2019-04-01T03:26:17.993Z,12.47
2019-04-01T03:29:05.536Z,13.00
2019-04-01T03:31:53.040Z,13.00
2019-04-01T03:34:40.716Z,12.67
2019-04-01T03:37:28.108Z,13.20
2019-04-01T03:40:15.553Z,12.83
2019-04-01T03:43:02.846Z,11.87
2019-04-01T03:45:50.347Z,11.60
2019-04-01T03:48:37.804Z,12.43
2019-04-01T03:51:25.418Z,12.17
2019-04-01T03:54:13.183Z,11.47
2019-04-01T03:57:00.788Z,11.73
2019-04-01T03:59:48.161Z,11.73
2019-04-01T04:02:35.763Z,11.87
2019-04-01T04:05:23.632Z,12.80
2019-04-01T04:08:11.240Z,12.73
2019-04-01T04:10:58.678Z,12.47
2019-04-01T04:13:45.763Z,11.87
2019-04-01T04:16:33.414Z,12.87
2019-04-01T04:19:20.809Z,12.30
2019-04-01T04:22:08.220Z,12.77
2019-04-01T04:24:55.776Z,12.70
2019-04-01T04:27:43.508Z,12.40
2019-04-01T04:30:30.683Z,12.00
2019-04-01T04:33:18.440Z,12.73
2019-04-01T04:36:06.219Z,10.87
2019-04-01T04:38:53.794Z,11.77
2019-04-01T04:41:41.222Z,12.67
2019-04-01T04:44:28.684Z,12.00
2019-04-01T04:47:16.404Z,12.90
2019-04-01T04:50:03.645Z,12.03
2019-04-01T04:52:51.104Z,12.93
2019-04-01T04:55:38.321Z,13.87
2019-04-01T04:58:25.495Z,12.33
2019-04-01T05:01:13.574Z,14.03
2019-04-01T05:04:01.427Z,14.70
2019-04-01T05:06:49.342Z,14.07
2019-04-01T05:09:36.693Z,14.13
2019-04-01T05:12:24.317Z,14.80
2019-04-01T05:15:11.934Z,14.53
2019-04-01T05:17:59.481Z,13.73
2019-04-01T05:20:48.125Z,14.43
2019-04-01T05:23:35.706Z,14.87
2019-04-01T05:26:24.180Z,13.77
2019-04-01T05:29:12.541Z,14.50
2019-04-01T05:32:00.559Z,15.00
2019-04-01T05:34:49.743Z,14.90
2019-04-01T05:37:38.325Z,14.27
2019-04-01T05:40:26.817Z,14.97
2019-04-01T05:43:14.545Z,15.10
2019-04-01T05:46:01.984Z,14.50
2019-04-01T05:48:49.765Z,14.13
2019-04-01T05:51:37.406Z,14.53
2019-04-01T05:54:25.446Z,14.40
2019-04-01T05:57:12.809Z,14.47
2019-04-01T06:00:00.450Z,15.53
2019-04-01T06:02:48.419Z,14.90
2019-04-01T06:05:36.027Z,14.53
2019-04-01T06:08:23.413Z,14.93
2019-04-01T06:11:11.186Z,14.70
2019-04-01T06:13:59.272Z,15.70
2019-04-01T06:16:46.714Z,16.13
2019-04-01T06:19:34.227Z,15.47
2019-04-01T06:22:21.793Z,16.00
2019-04-01T06:25:09.969Z,17.93
2019-04-01T06:27:57.118Z,17.17
2019-04-01T06:30:44.739Z,17.03
2019-04-01T06:33:32.156Z,17.00
2019-04-01T06:36:19.873Z,17.47
2019-04-01T06:39:07.914Z,17.00
2019-04-01T06:56:21.105Z,19.10
2019-04-01T06:59:08.906Z,17.60
2019-04-01T07:01:56.427Z,17.60
2019-04-01T07:04:44.066Z,17.27
2019-04-01T07:07:31.829Z,17.50
2019-04-01T07:10:19.542Z,19.20
2019-04-01T07:13:07.054Z,19.90
2019-04-01T07:15:54.711Z,20.97
2019-04-01T07:18:42.648Z,22.07
2019-04-01T07:21:29.729Z,20.93
2019-04-01T07:24:17.017Z,18.87
2019-04-01T07:27:07.808Z,19.23
2019-04-01T07:29:53.541Z,20.33
2019-04-01T07:32:41.303Z,20.77
2019-04-01T07:35:28.955Z,20.97
2019-04-01T07:38:16.686Z,21.83
2019-04-01T07:41:04.165Z,22.23
2019-04-01T07:43:51.644Z,23.60
2019-04-01T07:46:39.019Z,22.47
2019-04-01T07:49:26.657Z,22.90
2019-04-01T07:52:14.373Z,23.00
2019-04-01T07:55:01.658Z,22.47
2019-04-01T07:57:49.042Z,23.10
2019-04-01T08:00:36.764Z,22.80
2019-04-01T08:03:24.517Z,22.50
2019-04-01T08:06:12.279Z,23.60
2019-04-01T08:08:59.589Z,24.60
2019-04-01T08:11:50.037Z,23.93
2019-04-01T08:14:36.690Z,22.47
2019-04-01T08:17:24.417Z,23.77
2019-04-01T08:20:12.040Z,23.60
2019-04-01T08:22:59.293Z,23.33
2019-04-01T08:25:48.112Z,22.87
2019-04-01T08:28:36.017Z,24.57
2019-04-01T08:31:23.657Z,25.33
2019-04-01T08:34:11.584Z,24.33
2019-04-01T08:36:59.059Z,24.77
2019-04-01T08:39:46.730Z,24.40
2019-04-01T08:42:34.316Z,25.07
2019-04-01T08:45:21.704Z,24.50
2019-04-01T08:48:09.153Z,25.03
2019-04-01T08:50:56.577Z,25.87
2019-04-01T08:53:44.191Z,25.10
2019-04-01T08:56:31.369Z,24.73
2019-04-01T08:59:18.845Z,26.37
2019-04-01T09:02:17.009Z,26.43
2019-04-01T09:04:55.642Z,27.90
2019-04-01T09:07:43.167Z,25.73
2019-04-01T09:10:30.679Z,26.57
2019-04-01T09:13:18.708Z,25.40
2019-04-01T09:16:06.307Z,26.87
2019-04-01T09:18:53.470Z,26.97
2019-04-01T09:21:40.863Z,27.67
2019-04-01T09:24:28.978Z,26.13
2019-04-01T09:27:16.703Z,27.10
2019-04-01T09:30:05.603Z,27.50
2019-04-01T09:32:53.191Z,27.00
2019-04-01T09:35:41.180Z,26.83
2019-04-01T09:38:28.729Z,28.03
2019-04-01T09:41:16.182Z,27.83
2019-04-01T09:44:03.564Z,28.53
2019-04-01T09:46:51.127Z,28.47
2019-04-01T09:49:38.357Z,29.90
2019-04-01T09:52:25.761Z,27.77
2019-04-01T09:55:12.907Z,29.20
2019-04-01T09:58:00.368Z,27.13
2019-04-01T10:00:53.197Z,28.37
2019-04-01T10:03:39.659Z,27.87
2019-04-01T10:06:27.102Z,27.07
2019-04-01T10:09:14.285Z,28.30
2019-04-01T10:12:01.976Z,28.40
2019-04-01T10:14:49.973Z,29.13
2019-04-01T10:17:37.715Z,28.57
2019-04-01T10:20:25.474Z,30.20
2019-04-01T10:23:12.613Z,28.67
2019-04-01T10:26:00.477Z,29.23
2019-04-01T10:28:47.989Z,28.43
2019-04-01T10:31:35.683Z,30.53
2019-04-01T10:34:23.255Z,28.80
2019-04-01T10:37:11.019Z,28.60
2019-04-01T10:40:00.329Z,30.43
2019-04-01T10:42:47.543Z,30.47
2019-04-01T10:45:35.045Z,29.27
2019-04-01T10:48:22.644Z,29.47
2019-04-01T10:51:10.310Z,30.33
2019-04-01T10:53:57.646Z,31.03
2019-04-01T10:56:45.101Z,30.87
2019-04-01T10:59:32.591Z,29.37
2019-04-01T11:02:20.348Z,31.23
2019-04-01T11:05:08.474Z,32.20
2019-04-01T11:07:55.826Z,29.27
2019-04-01T11:10:43.310Z,29.80
2019-04-01T11:13:30.804Z,32.87
2019-04-01T11:16:18.577Z,30.80
2019-04-01T11:19:06.242Z,30.83
2019-04-01T11:21:54.187Z,29.20
2019-04-01T11:24:41.278Z,29.33
2019-04-01T11:27:28.996Z,29.93
2019-04-01T11:30:18.057Z,30.10
2019-04-01T11:33:07.681Z,30.83
2019-04-01T11:35:54.744Z,30.87
2019-04-01T11:38:41.799Z,31.33
2019-04-01T11:41:29.240Z,31.47
2019-04-01T11:44:16.581Z,29.27
2019-04-01T11:47:03.717Z,28.67
2019-04-01T11:49:51.262Z,30.83
2019-04-01T11:52:39.136Z,26.43
2019-04-01T11:55:26.677Z,30.37
2019-04-01T11:58:14.096Z,30.50
2019-04-01T12:01:01.395Z,29.90
2019-04-01T12:03:49.023Z,28.93
2019-04-01T12:06:36.783Z,29.70
2019-04-01T12:09:24.213Z,28.93
2019-04-01T12:12:23.713Z,27.77
2019-04-01T12:15:01.296Z,26.73
2019-04-01T12:17:48.763Z,23.87
2019-04-01T12:20:36.250Z,22.33
2019-04-01T12:23:24.047Z,21.80
2019-04-01T12:26:15.477Z,22.83
2019-04-01T12:29:00.980Z,22.20
2019-04-01T12:31:48.283Z,25.17
2019-04-01T12:34:35.618Z,26.67
2019-04-01T12:37:23.295Z,26.57
2019-04-01T12:40:11.370Z,25.13
2019-04-01T12:42:58.739Z,26.90
2019-04-01T12:45:46.642Z,24.97
2019-04-01T12:48:33.982Z,24.27
2019-04-01T12:51:21.866Z,23.30
2019-04-01T12:54:10.904Z,22.80
2019-04-01T12:56:58.508Z,23.90
2019-04-01T12:59:46.145Z,23.97
2019-04-01T13:02:33.263Z,24.47
2019-04-01T13:05:20.703Z,22.53
2019-04-01T13:08:08.608Z,22.47
2019-04-01T13:10:56.695Z,23.03
2019-04-01T13:13:44.771Z,23.10
2019-04-01T13:16:32.934Z,25.00
2019-04-01T13:19:20.410Z,24.97
2019-04-01T13:22:09.069Z,22.87
2019-04-01T13:24:57.276Z,23.23
2019-04-01T13:27:44.629Z,23.37
2019-04-01T13:30:32.549Z,23.50
2019-04-01T13:33:20.000Z,22.73
2019-04-01T13:36:08.019Z,23.03
2019-04-01T13:38:55.617Z,24.87
2019-04-01T13:41:43.215Z,23.43
2019-04-01T13:44:37.168Z,24.97
2019-04-01T13:47:20.489Z,23.30
2019-04-01T13:50:08.474Z,23.67
2019-04-01T13:52:56.014Z,26.10
2019-04-01T13:55:43.140Z,20.53
2019-04-01T13:58:30.467Z,22.73
2019-04-01T14:01:18.221Z,22.13
2019-04-01T14:04:05.950Z,22.40
2019-04-01T14:06:53.174Z,21.13
2019-04-01T14:09:40.193Z,20.70
2019-04-01T14:12:27.893Z,22.17
2019-04-01T14:15:16.359Z,22.53
2019-04-01T14:18:03.723Z,21.73
2019-04-01T14:20:50.819Z,23.33
2019-04-01T14:23:37.848Z,21.93
2019-04-01T14:26:25.502Z,21.50
2019-04-01T14:29:16.333Z,20.43
2019-04-01T14:32:02.199Z,22.10
2019-04-01T14:34:50.515Z,22.07
2019-04-01T14:37:39.896Z,22.40
2019-04-01T14:40:28.167Z,23.97
2019-04-01T14:43:15.241Z,23.07
2019-04-01T14:46:02.872Z,23.33
2019-04-01T14:48:50.320Z,21.77
2019-04-01T14:51:37.669Z,22.40
2019-04-01T14:54:25.320Z,23.37
2019-04-01T14:57:13.063Z,24.37
2019-04-01T15:00:00.698Z,23.60
2019-04-01T15:02:48.377Z,23.73
2019-04-01T15:05:35.873Z,25.20
2019-04-01T15:08:23.543Z,24.57
2019-04-01T15:11:12.166Z,23.50
2019-04-01T15:14:00.319Z,24.70
2019-04-01T15:16:48.184Z,22.30
2019-04-01T15:19:35.478Z,19.37
2019-04-01T15:22:25.496Z,20.33
2019-04-01T15:25:12.338Z,19.37
2019-04-01T15:27:59.889Z,20.20
2019-04-01T15:30:47.210Z,22.13
2019-04-01T15:33:34.632Z,20.20
2019-04-01T15:36:22.367Z,23.70
2019-04-01T15:39:12.996Z,22.77
2019-04-01T15:42:00.139Z,20.83
2019-04-01T15:44:47.623Z,21.13
2019-04-01T15:47:35.695Z,20.13
2019-04-01T15:50:28.768Z,20.83
2019-04-01T15:53:12.894Z,19.30
2019-04-01T15:56:00.578Z,21.40
2019-04-01T15:58:50.809Z,18.37
2019-04-01T16:01:37.223Z,20.73
2019-04-01T16:04:24.739Z,19.57
2019-04-01T16:07:12.336Z,19.93
2019-04-01T16:09:59.507Z,20.07
2019-04-01T16:12:47.158Z,21.60
2019-04-01T16:15:34.666Z,21.10
2019-04-01T16:18:22.024Z,20.83
2019-04-01T16:21:09.177Z,19.87
2019-04-01T16:23:56.188Z,21.10
2019-04-01T16:26:44.333Z,21.40
2019-04-01T16:29:31.784Z,19.43
2019-04-01T16:32:19.734Z,20.27
2019-04-01T16:35:07.993Z,21.13
2019-04-01T16:37:55.130Z,21.83
2019-04-01T16:40:42.423Z,22.37
2019-04-01T16:43:30.229Z,22.07
2019-04-01T16:46:17.789Z,21.67
2019-04-01T16:49:05.302Z,21.47
2019-04-01T16:51:52.851Z,20.53
2019-04-01T16:54:40.650Z,22.40
2019-04-01T16:57:28.067Z,22.10
2019-04-01T17:00:16.019Z,21.30
2019-04-01T17:03:03.334Z,22.67
2019-04-01T17:05:50.520Z,21.90
2019-04-01T17:08:39.261Z,23.00
2019-04-01T17:11:27.141Z,24.03
2019-04-01T17:14:14.804Z,23.63
2019-04-01T17:17:02.200Z,23.63
2019-04-01T17:19:49.321Z,22.70
2019-04-01T17:22:36.804Z,22.80
2019-04-01T17:25:25.288Z,24.23
2019-04-01T17:28:16.294Z,24.30
2019-04-01T17:31:03.906Z,25.40
2019-04-01T17:33:51.632Z,25.33
2019-04-01T17:36:39.268Z,25.47
2019-04-01T17:39:34.229Z,25.70
2019-04-01T17:42:22.302Z,24.97
2019-04-01T17:45:30.598Z,27.17
2019-04-01T17:48:18.068Z,26.43
2019-04-01T17:51:05.528Z,24.63
2019-04-01T17:53:53.211Z,25.73
2019-04-01T17:56:40.880Z,25.87
2019-04-01T17:59:28.627Z,25.70
2019-04-01T18:02:24.459Z,26.40
2019-04-01T18:05:15.131Z,26.47
2019-04-01T18:08:03.013Z,26.37
2019-04-01T18:10:50.477Z,27.47
2019-04-01T18:13:38.021Z,25.40
2019-04-01T18:16:25.293Z,26.00
2019-04-01T18:19:12.744Z,27.53
2019-04-01T18:22:00.545Z,26.33
2019-04-01T18:24:48.011Z,25.73
2019-04-01T18:27:35.800Z,27.37
2019-04-01T18:30:23.769Z,27.17
2019-04-01T18:33:11.217Z,25.70
2019-04-01T18:35:58.837Z,27.27
2019-04-01T18:38:46.829Z,27.37
2019-04-01T18:41:34.358Z,25.97
2019-04-01T18:44:21.847Z,26.40
2019-04-01T18:47:09.206Z,29.00
2019-04-01T18:49:56.376Z,25.73
2019-04-01T18:52:44.095Z,28.03
2019-04-01T18:55:31.536Z,28.67
2019-04-01T18:58:19.132Z,25.93
2019-04-01T19:01:06.623Z,29.97
2019-04-01T19:03:54.214Z,27.30
2019-04-01T19:06:42.026Z,28.93
2019-04-01T19:09:32.364Z,27.60
2019-04-01T19:12:19.528Z,26.80
2019-04-01T19:15:09.853Z,28.77
2019-04-01T19:17:57.481Z,29.23
2019-04-01T19:20:55.618Z,28.40
2019-04-01T19:23:34.618Z,28.20
2019-04-01T19:26:22.231Z,29.03
2019-04-01T19:29:09.743Z,29.80
2019-04-01T19:31:56.929Z,28.40
2019-04-01T19:34:44.551Z,29.13
2019-04-01T19:37:33.690Z,29.17
2019-04-01T19:40:22.067Z,27.43
2019-04-01T19:43:09.797Z,27.77
2019-04-01T19:45:57.239Z,28.10
2019-04-01T19:48:46.702Z,27.33
2019-04-01T19:51:36.038Z,26.10
2019-04-01T19:54:31.101Z,26.93
2019-04-01T19:57:13.337Z,27.10
2019-04-01T20:00:00.756Z,27.93
2019-04-01T20:02:48.473Z,26.37
2019-04-01T20:05:36.238Z,28.00
2019-04-01T20:08:23.939Z,27.37
2019-04-01T20:11:11.161Z,27.00
2019-04-01T20:13:58.901Z,28.87
2019-04-01T20:16:47.099Z,25.80
2019-04-01T20:19:36.853Z,27.37
2019-04-01T20:22:25.186Z,27.33
2019-04-01T20:25:13.442Z,26.03
2019-04-01T20:28:01.217Z,26.20
2019-04-01T20:30:49.040Z,26.63
2019-04-01T20:33:36.276Z,26.53
2019-04-01T20:36:28.931Z,26.47
2019-04-01T20:39:13.025Z,27.53
2019-04-01T20:42:00.772Z,25.87
2019-04-01T20:44:47.987Z,26.63
2019-04-01T20:47:36.028Z,27.57
2019-04-01T20:50:24.155Z,26.33
2019-04-01T20:56:00.563Z,27.03
2019-04-01T20:58:47.957Z,27.17
2019-04-01T21:01:35.808Z,27.33
2019-04-01T21:04:23.223Z,26.57
2019-04-01T21:07:10.993Z,25.83
2019-04-01T21:10:17.670Z,24.23
2019-04-01T21:13:06.249Z,24.30
2019-04-01T21:15:54.398Z,24.77
2019-04-01T21:18:41.501Z,25.67
2019-04-01T21:21:29.149Z,24.57
2019-04-01T21:24:16.359Z,24.97
2019-04-01T21:27:03.896Z,26.47
2019-04-01T21:29:51.468Z,24.70
2019-04-01T21:32:38.900Z,25.97
2019-04-01T21:35:26.711Z,25.87
2019-04-01T21:38:13.970Z,25.83
2019-04-01T21:41:01.520Z,25.73
2019-04-01T21:43:49.525Z,26.97
2019-04-01T21:46:37.075Z,28.23
2019-04-01T21:49:24.653Z,28.00
2019-04-01T21:52:12.329Z,27.40
2019-04-01T21:55:00.001Z,28.37
2019-04-01T21:57:47.701Z,27.97
2019-04-01T22:00:45.823Z,27.13
2019-04-01T22:03:33.670Z,26.73
2019-04-01T22:06:20.808Z,28.03
2019-04-01T22:09:09.873Z,27.87
2019-04-01T22:11:57.995Z,29.37
2019-04-01T22:14:45.468Z,28.37
2019-04-01T22:17:32.948Z,29.30
2019-04-01T22:20:20.817Z,29.40
2019-04-01T22:23:08.234Z,28.93
2019-04-01T22:25:56.159Z,29.50
2019-04-01T22:28:43.514Z,29.37
2019-04-01T22:31:31.050Z,30.40
2019-04-01T22:34:18.486Z,30.27
2019-04-01T22:37:06.100Z,30.27
2019-04-01T22:39:53.906Z,29.67
2019-04-01T22:42:41.324Z,30.57
2019-04-01T22:45:28.774Z,32.30
2019-04-01T22:48:16.150Z,31.17
2019-04-01T22:51:03.600Z,30.57
2019-04-01T22:53:50.963Z,31.77
2019-04-01T22:56:39.158Z,30.70
2019-04-01T22:59:26.910Z,30.70
2019-04-01T23:02:14.443Z,30.33
2019-04-01T23:05:02.126Z,29.47
2019-04-01T23:07:49.669Z,29.67
2019-04-01T23:10:37.094Z,31.13
2019-04-01T23:13:24.533Z,30.07
2019-04-01T23:16:13.091Z,28.83
2019-04-01T23:19:00.722Z,31.27
2019-04-01T23:21:48.496Z,31.43
2019-04-01T23:24:36.152Z,29.57
2019-04-01T23:27:24.276Z,30.37
2019-04-01T23:30:13.010Z,31.80
2019-04-01T23:33:00.420Z,30.10
2019-04-01T23:35:48.042Z,31.40
2019-04-01T23:38:39.002Z,31.27
2019-04-01T23:41:26.962Z,31.77
2019-04-01T23:44:14.751Z,33.00
2019-04-01T23:47:02.168Z,32.47
2019-04-01T23:49:49.923Z,32.43
2019-04-01T23:52:37.544Z,32.23
2019-04-01T23:55:24.977Z,32.13
2019-04-01T23:58:12.584Z,33.07
